sensor_id;sensor_type;location;lat;lon;timestamp;pressure;altitude;pressure_sealevel;temperature;humidity
41800;BME280;27468;47.460;19.034;2023-02-16T00:00:43;101801.84;;;-1.01;89.62
41800;BME280;27468;47.460;19.034;2023-02-16T00:03:11;101767.19;;;-1.22;89.65
41800;BME280;27468;47.460;19.034;2023-02-16T00:05:38;101748.59;;;-1.31;89.51
41800;BME280;27468;47.460;19.034;2023-02-16T00:08:03;101825.69;;;-0.90;89.59
41800;BME280;27468;47.460;19.034;2023-02-16T00:10:31;101834.34;;;-0.89;89.18
41800;BME280;27468;47.460;19.034;2023-02-16T00:12:58;101776.97;;;-1.15;89.13
41800;BME280;27468;47.460;19.034;2023-02-16T00:15:42;101794.28;;;-1.14;89.33
41800;BME280;27468;47.460;19.034;2023-02-16T00:18:18;101773.97;;;-1.24;89.32
41800;BME280;27468;47.460;19.034;2023-02-16T00:20:44;101749.09;;;-1.38;88.95
41800;BME280;27468;47.460;19.034;2023-02-16T00:23:09;101837.19;;;-1.01;89.32
41800;BME280;27468;47.460;19.034;2023-02-16T00:25:35;101799.19;;;-1.20;89.71
41800;BME280;27468;47.460;19.034;2023-02-16T00:28:09;101815.00;;;-1.14;89.66
41800;BME280;27468;47.460;19.034;2023-02-16T00:30:35;101741.31;;;-1.56;89.82
41800;BME280;27468;47.460;19.034;2023-02-16T00:33:01;101740.25;;;-1.59;89.93
41800;BME280;27468;47.460;19.034;2023-02-16T00:35:26;101767.22;;;-1.38;90.05
41800;BME280;27468;47.460;19.034;2023-02-16T00:37:52;101783.19;;;-1.29;89.87
41800;BME280;27468;47.460;19.034;2023-02-16T00:40:17;101697.03;;;-1.80;89.98
41800;BME280;27468;47.460;19.034;2023-02-16T00:42:44;101806.06;;;-1.20;90.22
41800;BME280;27468;47.460;19.034;2023-02-16T00:45:19;101819.16;;;-1.17;90.15
41800;BME280;27468;47.460;19.034;2023-02-16T00:47:47;101805.91;;;-1.23;90.41
41800;BME280;27468;47.460;19.034;2023-02-16T00:50:22;101802.19;;;-1.28;90.50
41800;BME280;27468;47.460;19.034;2023-02-16T00:52:48;101811.25;;;-1.20;90.75
41800;BME280;27468;47.460;19.034;2023-02-16T00:55:19;101785.72;;;-1.30;90.47
41800;BME280;27468;47.460;19.034;2023-02-16T00:57:49;101810.28;;;-1.22;90.32
41800;BME280;27468;47.460;19.034;2023-02-16T01:02:48;101751.00;;;-1.52;89.96
41800;BME280;27468;47.460;19.034;2023-02-16T01:05:15;101706.72;;;-1.76;90.03
41800;BME280;27468;47.460;19.034;2023-02-16T01:07:40;101764.00;;;-1.50;89.99
41800;BME280;27468;47.460;19.034;2023-02-16T01:10:25;101796.72;;;-1.35;89.86
41800;BME280;27468;47.460;19.034;2023-02-16T01:13:10;101787.91;;;-1.38;89.66
41800;BME280;27468;47.460;19.034;2023-02-16T01:15:37;101797.53;;;-1.36;89.44
41800;BME280;27468;47.460;19.034;2023-02-16T01:18:03;101801.22;;;-1.30;89.27
41800;BME280;27468;47.460;19.034;2023-02-16T01:20:29;101760.28;;;-1.55;89.22
41800;BME280;27468;47.460;19.034;2023-02-16T01:22:54;101792.91;;;-1.41;89.55
41800;BME280;27468;47.460;19.034;2023-02-16T01:25:20;101782.69;;;-1.56;89.30
41800;BME280;27468;47.460;19.034;2023-02-16T01:27:46;101770.31;;;-1.61;89.54
41800;BME280;27468;47.460;19.034;2023-02-16T01:30:20;101761.84;;;-1.59;89.35
41800;BME280;27468;47.460;19.034;2023-02-16T01:32:47;101699.63;;;-1.96;89.19
41800;BME280;27468;47.460;19.034;2023-02-16T01:37:43;101748.88;;;-1.77;89.81
41800;BME280;27468;47.460;19.034;2023-02-16T01:43:17;101771.03;;;-1.64;89.59
41800;BME280;27468;47.460;19.034;2023-02-16T01:45:50;101793.25;;;-1.51;89.47
41800;BME280;27468;47.460;19.034;2023-02-16T01:48:26;101728.75;;;-1.82;89.21
41800;BME280;27468;47.460;19.034;2023-02-16T01:50:58;101776.69;;;-1.55;89.04
41800;BME280;27468;47.460;19.034;2023-02-16T01:53:36;101716.34;;;-1.89;89.07
41800;BME280;27468;47.460;19.034;2023-02-16T01:56:05;101691.97;;;-2.11;88.90
41800;BME280;27468;47.460;19.034;2023-02-16T01:58:41;101742.66;;;-1.80;89.28
41800;BME280;27468;47.460;19.034;2023-02-16T02:04:36;101709.72;;;-2.01;89.26
41800;BME280;27468;47.460;19.034;2023-02-16T02:07:32;101744.50;;;-1.78;89.33
41800;BME280;27468;47.460;19.034;2023-02-16T02:10:06;101721.41;;;-1.91;89.00
41800;BME280;27468;47.460;19.034;2023-02-16T02:12:45;101693.16;;;-2.04;88.92
41800;BME280;27468;47.460;19.034;2023-02-16T02:15:14;101750.66;;;-1.76;88.95
41800;BME280;27468;47.460;19.034;2023-02-16T02:17:41;101737.56;;;-1.79;88.87
41800;BME280;27468;47.460;19.034;2023-02-16T02:23:42;101649.97;;;-2.23;88.99
41800;BME280;27468;47.460;19.034;2023-02-16T02:29:39;101746.28;;;-1.77;89.29
41800;BME280;27468;47.460;19.034;2023-02-16T02:32:14;101754.94;;;-1.76;89.08
41800;BME280;27468;47.460;19.034;2023-02-16T02:35:10;101661.94;;;-2.25;89.32
41800;BME280;27468;47.460;19.034;2023-02-16T02:40:05;101730.38;;;-1.84;89.66
41800;BME280;27468;47.460;19.034;2023-02-16T02:42:43;101673.00;;;-2.27;90.09
41800;BME280;27468;47.460;19.034;2023-02-16T02:45:35;101733.69;;;-1.87;89.85
41800;BME280;27468;47.460;19.034;2023-02-16T02:48:02;101735.06;;;-1.93;90.01
41800;BME280;27468;47.460;19.034;2023-02-16T02:50:37;101735.00;;;-1.95;90.11
41800;BME280;27468;47.460;19.034;2023-02-16T02:53:12;101737.50;;;-1.96;89.87
41800;BME280;27468;47.460;19.034;2023-02-16T02:55:43;101740.41;;;-1.90;90.31
41800;BME280;27468;47.460;19.034;2023-02-16T02:58:32;101711.00;;;-2.09;90.16
41800;BME280;27468;47.460;19.034;2023-02-16T03:01:18;101667.66;;;-2.30;90.33
41800;BME280;27468;47.460;19.034;2023-02-16T03:03:48;101737.75;;;-1.92;90.48
41800;BME280;27468;47.460;19.034;2023-02-16T03:06:22;101673.88;;;-2.27;90.48
41800;BME280;27468;47.460;19.034;2023-02-16T03:08:53;101662.66;;;-2.27;90.63
41800;BME280;27468;47.460;19.034;2023-02-16T03:11:22;101739.84;;;-1.85;90.55
41800;BME280;27468;47.460;19.034;2023-02-16T03:14:40;101741.53;;;-1.85;90.43
41800;BME280;27468;47.460;19.034;2023-02-16T03:17:10;101672.34;;;-2.23;90.42
41800;BME280;27468;47.460;19.034;2023-02-16T03:19:57;101683.66;;;-2.21;90.29
41800;BME280;27468;47.460;19.034;2023-02-16T03:22:42;101670.91;;;-2.35;90.11
41800;BME280;27468;47.460;19.034;2023-02-16T03:25:30;101726.69;;;-2.06;90.31
41800;BME280;27468;47.460;19.034;2023-02-16T03:28:17;101672.53;;;-2.37;90.33
41800;BME280;27468;47.460;19.034;2023-02-16T03:31:03;101649.44;;;-2.50;90.34
41800;BME280;27468;47.460;19.034;2023-02-16T03:33:30;101669.78;;;-2.40;90.27
41800;BME280;27468;47.460;19.034;2023-02-16T03:35:57;101719.97;;;-2.02;90.10
41800;BME280;27468;47.460;19.034;2023-02-16T03:38:23;101702.22;;;-2.12;89.88
41800;BME280;27468;47.460;19.034;2023-02-16T03:40:49;101721.75;;;-2.01;89.74
41800;BME280;27468;47.460;19.034;2023-02-16T03:43:15;101719.66;;;-2.08;89.99
41800;BME280;27468;47.460;19.034;2023-02-16T03:45:42;101703.41;;;-2.22;89.74
41800;BME280;27468;47.460;19.034;2023-02-16T03:48:08;101718.84;;;-2.07;89.74
41800;BME280;27468;47.460;19.034;2023-02-16T03:50:34;101716.66;;;-2.16;89.69
41800;BME280;27468;47.460;19.034;2023-02-16T03:52:59;101709.81;;;-2.15;89.86
41800;BME280;27468;47.460;19.034;2023-02-16T03:55:44;101707.78;;;-2.21;90.27
41800;BME280;27468;47.460;19.034;2023-02-16T03:58:13;101723.69;;;-2.13;90.28
41800;BME280;27468;47.460;19.034;2023-02-16T04:00:39;101664.69;;;-2.54;90.10
41800;BME280;27468;47.460;19.034;2023-02-16T04:03:05;101700.13;;;-2.19;89.92
41800;BME280;27468;47.460;19.034;2023-02-16T04:05:33;101691.16;;;-2.26;89.55
41800;BME280;27468;47.460;19.034;2023-02-16T04:07:59;101720.47;;;-2.09;89.47
41800;BME280;27468;47.460;19.034;2023-02-16T04:10:24;101736.28;;;-2.03;89.52
41800;BME280;27468;47.460;19.034;2023-02-16T04:12:50;101651.16;;;-2.50;89.25
41800;BME280;27468;47.460;19.034;2023-02-16T04:15:18;101717.72;;;-2.12;89.33
41800;BME280;27468;47.460;19.034;2023-02-16T04:17:45;101692.69;;;-2.29;89.09
41800;BME280;27468;47.460;19.034;2023-02-16T04:20:13;101721.91;;;-2.14;89.05
41800;BME280;27468;47.460;19.034;2023-02-16T04:22:39;101660.75;;;-2.48;88.82
41800;BME280;27468;47.460;19.034;2023-02-16T04:25:06;101656.16;;;-2.53;88.81
41800;BME280;27468;47.460;19.034;2023-02-16T04:27:32;101681.72;;;-2.42;88.84
41800;BME280;27468;47.460;19.034;2023-02-16T04:29:58;101652.75;;;-2.52;88.87
41800;BME280;27468;47.460;19.034;2023-02-16T04:32:23;101680.84;;;-2.42;88.86
41800;BME280;27468;47.460;19.034;2023-02-16T04:34:49;101725.78;;;-2.22;89.02
41800;BME280;27468;47.460;19.034;2023-02-16T04:37:14;101684.53;;;-2.53;89.24
41800;BME280;27468;47.460;19.034;2023-02-16T04:39:40;101723.69;;;-2.29;88.99
41800;BME280;27468;47.460;19.034;2023-02-16T04:42:05;101704.97;;;-2.42;89.18
41800;BME280;27468;47.460;19.034;2023-02-16T04:44:30;101663.66;;;-2.58;88.91
41800;BME280;27468;47.460;19.034;2023-02-16T04:46:56;101652.19;;;-2.63;88.49
41800;BME280;27468;47.460;19.034;2023-02-16T04:49:21;101666.38;;;-2.55;88.41
41800;BME280;27468;47.460;19.034;2023-02-16T04:51:47;101712.31;;;-2.33;88.18
41800;BME280;27468;47.460;19.034;2023-02-16T04:54:12;101655.41;;;-2.67;88.26
41800;BME280;27468;47.460;19.034;2023-02-16T04:56:38;101723.06;;;-2.42;88.33
41800;BME280;27468;47.460;19.034;2023-02-16T04:59:03;101677.44;;;-2.57;88.49
41800;BME280;27468;47.460;19.034;2023-02-16T05:01:29;101728.13;;;-2.43;88.54
41800;BME280;27468;47.460;19.034;2023-02-16T05:03:55;101728.63;;;-2.34;88.63
41800;BME280;27468;47.460;19.034;2023-02-16T05:06:20;101720.81;;;-2.36;88.39
41800;BME280;27468;47.460;19.034;2023-02-16T05:08:46;101634.47;;;-2.88;88.48
41800;BME280;27468;47.460;19.034;2023-02-16T05:11:11;101641.66;;;-2.82;88.67
41800;BME280;27468;47.460;19.034;2023-02-16T05:13:59;101695.75;;;-2.53;88.57
41800;BME280;27468;47.460;19.034;2023-02-16T05:16:43;101725.56;;;-2.43;88.63
41800;BME280;27468;47.460;19.034;2023-02-16T05:19:09;101667.81;;;-2.76;88.92
41800;BME280;27468;47.460;19.034;2023-02-16T05:21:34;101720.84;;;-2.50;88.85
41800;BME280;27468;47.460;19.034;2023-02-16T05:24:08;101735.78;;;-2.45;88.74
41800;BME280;27468;47.460;19.034;2023-02-16T05:26:35;101662.97;;;-2.70;88.48
41800;BME280;27468;47.460;19.034;2023-02-16T05:29:02;101625.47;;;-2.96;88.60
41800;BME280;27468;47.460;19.034;2023-02-16T05:31:28;101662.81;;;-2.73;88.48
41800;BME280;27468;47.460;19.034;2023-02-16T05:33:54;101715.94;;;-2.46;89.15
41800;BME280;27468;47.460;19.034;2023-02-16T05:36:20;101710.88;;;-2.44;88.93
41800;BME280;27468;47.460;19.034;2023-02-16T05:38:46;101714.25;;;-2.45;89.05
41800;BME280;27468;47.460;19.034;2023-02-16T05:41:12;101700.03;;;-2.53;88.95
41800;BME280;27468;47.460;19.034;2023-02-16T05:43:50;101675.25;;;-2.66;89.09
41800;BME280;27468;47.460;19.034;2023-02-16T05:46:16;101694.38;;;-2.62;89.12
41800;BME280;27468;47.460;19.034;2023-02-16T05:48:42;101704.16;;;-2.57;89.04
41800;BME280;27468;47.460;19.034;2023-02-16T05:51:07;101700.84;;;-2.54;88.83
41800;BME280;27468;47.460;19.034;2023-02-16T05:53:32;101650.06;;;-2.86;88.55
41800;BME280;27468;47.460;19.034;2023-02-16T05:55:58;101630.88;;;-2.91;88.47
41800;BME280;27468;47.460;19.034;2023-02-16T05:58:23;101710.78;;;-2.46;88.50
41800;BME280;27468;47.460;19.034;2023-02-16T06:00:49;101706.34;;;-2.48;88.66
41800;BME280;27468;47.460;19.034;2023-02-16T06:03:14;101641.84;;;-2.79;88.63
41800;BME280;27468;47.460;19.034;2023-02-16T06:05:39;101630.28;;;-2.86;88.44
41800;BME280;27468;47.460;19.034;2023-02-16T06:08:05;101597.91;;;-2.97;88.35
41800;BME280;27468;47.460;19.034;2023-02-16T06:10:30;101679.47;;;-2.52;88.06
41800;BME280;27468;47.460;19.034;2023-02-16T06:12:56;101666.72;;;-2.49;88.17
41800;BME280;27468;47.460;19.034;2023-02-16T06:15:21;101654.03;;;-2.60;88.08
41800;BME280;27468;47.460;19.034;2023-02-16T06:17:46;101714.22;;;-2.29;88.30
41800;BME280;27468;47.460;19.034;2023-02-16T06:20:12;101673.50;;;-2.51;88.17
41800;BME280;27468;47.460;19.034;2023-02-16T06:22:37;101625.31;;;-2.67;87.93
41800;BME280;27468;47.460;19.034;2023-02-16T06:25:03;101690.34;;;-2.25;88.31
41800;BME280;27468;47.460;19.034;2023-02-16T06:27:28;101651.47;;;-2.44;88.01
41800;BME280;27468;47.460;19.034;2023-02-16T06:29:53;101642.03;;;-2.44;87.91
41800;BME280;27468;47.460;19.034;2023-02-16T06:32:19;101676.63;;;-2.24;87.98
41800;BME280;27468;47.460;19.034;2023-02-16T06:34:45;101708.75;;;-2.03;88.05
41800;BME280;27468;47.460;19.034;2023-02-16T06:37:10;101688.56;;;-2.10;87.93
41800;BME280;27468;47.460;19.034;2023-02-16T06:39:35;101707.94;;;-2.02;88.11
41800;BME280;27468;47.460;19.034;2023-02-16T06:42:01;101643.69;;;-2.28;88.03
41800;BME280;27468;47.460;19.034;2023-02-16T06:44:26;101698.72;;;-1.96;88.22
41800;BME280;27468;47.460;19.034;2023-02-16T06:46:52;101693.72;;;-1.93;88.30
41800;BME280;27468;47.460;19.034;2023-02-16T06:49:19;101681.53;;;-1.96;88.28
41800;BME280;27468;47.460;19.034;2023-02-16T06:51:45;101687.81;;;-1.91;88.89
41800;BME280;27468;47.460;19.034;2023-02-16T06:54:11;101686.38;;;-1.86;88.88
41800;BME280;27468;47.460;19.034;2023-02-16T06:56:37;101692.19;;;-1.72;89.35
41800;BME280;27468;47.460;19.034;2023-02-16T06:59:03;101693.63;;;-1.61;89.01
41800;BME280;27468;47.460;19.034;2023-02-16T07:01:28;101633.03;;;-1.84;89.30
41800;BME280;27468;47.460;19.034;2023-02-16T07:03:55;101666.16;;;-1.59;88.89
41800;BME280;27468;47.460;19.034;2023-02-16T07:06:22;101650.72;;;-1.57;89.15
41800;BME280;27468;47.460;19.034;2023-02-16T07:08:48;101667.50;;;-1.49;89.39
41800;BME280;27468;47.460;19.034;2023-02-16T07:11:14;101604.31;;;-1.72;89.34
41800;BME280;27468;47.460;19.034;2023-02-16T07:13:41;101669.50;;;-1.26;89.45
41800;BME280;27468;47.460;19.034;2023-02-16T07:16:06;101643.63;;;-1.44;89.68
41800;BME280;27468;47.460;19.034;2023-02-16T07:18:32;101701.66;;;-1.03;89.86
41800;BME280;27468;47.460;19.034;2023-02-16T07:20:58;101703.88;;;-0.93;89.64
41800;BME280;27468;47.460;19.034;2023-02-16T07:23:24;101679.25;;;-1.03;89.42
41800;BME280;27468;47.460;19.034;2023-02-16T07:25:49;101651.44;;;-1.07;89.29
41800;BME280;27468;47.460;19.034;2023-02-16T07:28:15;101673.03;;;-0.88;89.31
41800;BME280;27468;47.460;19.034;2023-02-16T07:30:40;101709.53;;;-0.64;89.37
41800;BME280;27468;47.460;19.034;2023-02-16T07:33:06;101677.22;;;-0.73;89.47
41800;BME280;27468;47.460;19.034;2023-02-16T07:35:35;101673.28;;;-0.64;89.60
41800;BME280;27468;47.460;19.034;2023-02-16T07:38:02;101638.00;;;-0.80;89.49
41800;BME280;27468;47.460;19.034;2023-02-16T07:40:27;101626.03;;;-0.78;89.82
41800;BME280;27468;47.460;19.034;2023-02-16T07:42:53;101689.03;;;-0.41;90.43
41800;BME280;27468;47.460;19.034;2023-02-16T07:45:18;101639.69;;;-0.63;90.21
41800;BME280;27468;47.460;19.034;2023-02-16T07:47:44;101668.50;;;-0.36;90.31
41800;BME280;27468;47.460;19.034;2023-02-16T07:50:09;101638.31;;;-0.36;90.21
41800;BME280;27468;47.460;19.034;2023-02-16T07:52:35;101657.66;;;-0.27;90.40
41800;BME280;27468;47.460;19.034;2023-02-16T07:55:00;101619.13;;;-0.39;90.49
41800;BME280;27468;47.460;19.034;2023-02-16T07:57:27;101647.84;;;-0.15;90.34
41800;BME280;27468;47.460;19.034;2023-02-16T07:59:53;101686.38;;;0.17;90.14
41800;BME280;27468;47.460;19.034;2023-02-16T08:02:20;101694.56;;;0.26;90.47
41800;BME280;27468;47.460;19.034;2023-02-16T08:04:46;101637.25;;;-0.01;90.17
41800;BME280;27468;47.460;19.034;2023-02-16T08:07:16;101679.91;;;0.27;90.29
41800;BME280;27468;47.460;19.034;2023-02-16T08:09:41;101681.25;;;0.38;90.25
41800;BME280;27468;47.460;19.034;2023-02-16T08:12:08;101620.28;;;0.08;89.80
41800;BME280;27468;47.460;19.034;2023-02-16T08:14:34;101668.31;;;0.40;89.71
41800;BME280;27468;47.460;19.034;2023-02-16T08:16:59;101618.09;;;0.17;89.54
41800;BME280;27468;47.460;19.034;2023-02-16T08:19:25;101623.47;;;0.21;89.02
41800;BME280;27468;47.460;19.034;2023-02-16T08:21:51;101676.16;;;0.62;89.27
41800;BME280;27468;47.460;19.034;2023-02-16T08:24:16;101674.56;;;0.65;88.82
41800;BME280;27468;47.460;19.034;2023-02-16T08:26:42;101650.88;;;0.56;88.38
41800;BME280;27468;47.460;19.034;2023-02-16T08:29:09;101678.75;;;0.83;88.23
41800;BME280;27468;47.460;19.034;2023-02-16T08:31:37;101641.72;;;0.66;nan
41800;BME280;27468;47.460;19.034;2023-02-16T08:34:03;101681.31;;;1.04;87.88
41800;BME280;27468;47.460;19.034;2023-02-16T08:36:35;101693.59;;;1.08;87.74
41800;BME280;27468;47.460;19.034;2023-02-16T08:39:12;101690.81;;;1.25;87.67
41800;BME280;27468;47.460;19.034;2023-02-16T08:41:39;101669.63;;;1.15;87.31
41800;BME280;27468;47.460;19.034;2023-02-16T08:44:07;101700.78;;;1.37;87.17
41800;BME280;27468;47.460;19.034;2023-02-16T08:46:34;101693.28;;;1.45;87.12
41800;BME280;27468;47.460;19.034;2023-02-16T08:49:02;101674.28;;;1.46;86.93
41800;BME280;27468;47.460;19.034;2023-02-16T08:51:30;101623.91;;;1.20;86.60
41800;BME280;27468;47.460;19.034;2023-02-16T08:53:59;101652.31;;;1.38;86.43
41800;BME280;27468;47.460;19.034;2023-02-16T08:56:26;101709.09;;;1.73;86.01
41800;BME280;27468;47.460;19.034;2023-02-16T08:58:54;101674.41;;;1.73;85.64
41800;BME280;27468;47.460;19.034;2023-02-16T09:01:20;101695.81;;;1.89;85.62
41800;BME280;27468;47.460;19.034;2023-02-16T09:03:46;101690.53;;;1.88;85.42
41800;BME280;27468;47.460;19.034;2023-02-16T09:06:14;101692.75;;;2.01;85.37
41800;BME280;27468;47.460;19.034;2023-02-16T09:08:40;101692.97;;;2.07;85.26
41800;BME280;27468;47.460;19.034;2023-02-16T09:11:09;101691.47;;;2.14;84.87
41800;BME280;27468;47.460;19.034;2023-02-16T09:13:36;101612.22;;;1.79;84.86
41800;BME280;27468;47.460;19.034;2023-02-16T09:16:06;101669.13;;;2.19;84.78
41800;BME280;27468;47.460;19.034;2023-02-16T09:18:33;101677.34;;;2.31;84.76
41800;BME280;27468;47.460;19.034;2023-02-16T09:21:10;101624.00;;;2.18;84.51
41800;BME280;27468;47.460;19.034;2023-02-16T09:23:36;101592.47;;;2.09;84.20
41800;BME280;27468;47.460;19.034;2023-02-16T09:26:02;101624.41;;;2.30;84.04
41800;BME280;27468;47.460;19.034;2023-02-16T09:28:32;101646.56;;;2.45;83.83
41800;BME280;27468;47.460;19.034;2023-02-16T09:30:58;101627.41;;;2.43;84.03
41800;BME280;27468;47.460;19.034;2023-02-16T09:33:24;101633.13;;;2.58;83.66
41800;BME280;27468;47.460;19.034;2023-02-16T09:35:49;101636.06;;;2.69;83.74
41800;BME280;27468;47.460;19.034;2023-02-16T09:38:15;101615.88;;;2.61;83.23
41800;BME280;27468;47.460;19.034;2023-02-16T09:40:43;101650.47;;;2.84;82.84
41800;BME280;27468;47.460;19.034;2023-02-16T09:43:47;101674.94;;;3.18;82.41
41800;BME280;27468;47.460;19.034;2023-02-16T09:46:19;101627.28;;;2.93;82.02
41800;BME280;27468;47.460;19.034;2023-02-16T09:48:48;101644.91;;;3.02;81.39
41800;BME280;27468;47.460;19.034;2023-02-16T09:51:38;101660.38;;;3.24;81.29
41800;BME280;27468;47.460;19.034;2023-02-16T09:56:35;101616.13;;;3.26;81.11
41800;BME280;27468;47.460;19.034;2023-02-16T09:59:19;101613.66;;;3.30;80.58
41800;BME280;27468;47.460;19.034;2023-02-16T10:10:05;101589.00;;;3.51;80.24
41800;BME280;27468;47.460;19.034;2023-02-16T10:12:37;101568.06;;;3.46;79.83
41800;BME280;27468;47.460;19.034;2023-02-16T10:15:15;101662.75;;;4.08;79.68
41800;BME280;27468;47.460;19.034;2023-02-16T10:17:50;101645.50;;;4.13;79.71
41800;BME280;27468;47.460;19.034;2023-02-16T10:20:30;101652.78;;;4.25;79.55
41800;BME280;27468;47.460;19.034;2023-02-16T10:23:10;101582.31;;;3.92;79.75
41800;BME280;27468;47.460;19.034;2023-02-16T10:25:53;101592.28;;;4.08;79.50
41800;BME280;27468;47.460;19.034;2023-02-16T10:31:12;101632.47;;;4.48;79.26
41800;BME280;27468;47.460;19.034;2023-02-16T10:33:43;101629.16;;;4.55;78.92
41800;BME280;27468;47.460;19.034;2023-02-16T10:36:27;101640.91;;;4.74;78.00
41800;BME280;27468;47.460;19.034;2023-02-16T10:39:07;101634.75;;;4.70;77.85
41800;BME280;27468;47.460;19.034;2023-02-16T10:41:43;101598.94;;;4.66;77.71
41800;BME280;27468;47.460;19.034;2023-02-16T10:44:23;101624.69;;;4.87;77.86
41800;BME280;27468;47.460;19.034;2023-02-16T10:46:55;101625.97;;;5.04;77.52
41800;BME280;27468;47.460;19.034;2023-02-16T10:49:23;101579.31;;;4.83;77.41
41800;BME280;27468;47.460;19.034;2023-02-16T10:51:50;101550.44;;;4.77;77.25
41800;BME280;27468;47.460;19.034;2023-02-16T10:54:28;101569.22;;;4.98;76.68
41800;BME280;27468;47.460;19.034;2023-02-16T10:59:40;101554.69;;;5.11;76.40
41800;BME280;27468;47.460;19.034;2023-02-16T11:02:27;101536.34;;;5.10;75.88
41800;BME280;27468;47.460;19.034;2023-02-16T11:04:57;101542.72;;;5.24;75.36
41800;BME280;27468;47.460;19.034;2023-02-16T11:07:27;101576.50;;;5.55;75.33
41800;BME280;27468;47.460;19.034;2023-02-16T11:09:57;101609.06;;;5.71;75.19
41800;BME280;27468;47.460;19.034;2023-02-16T11:12:37;101571.44;;;5.64;75.05
41800;BME280;27468;47.460;19.034;2023-02-16T11:15:07;101526.56;;;5.45;74.96
41800;BME280;27468;47.460;19.034;2023-02-16T11:23:32;101587.91;;;6.04;73.90
41800;BME280;27468;47.460;19.034;2023-02-16T11:28:41;101557.34;;;6.03;73.43
41800;BME280;27468;47.460;19.034;2023-02-16T11:31:27;101528.47;;;6.00;73.00
41800;BME280;27468;47.460;19.034;2023-02-16T11:34:01;101569.94;;;6.25;73.07
41800;BME280;27468;47.460;19.034;2023-02-16T11:36:42;101565.72;;;6.34;72.65
41800;BME280;27468;47.460;19.034;2023-02-16T11:39:22;101549.03;;;6.28;72.34
41800;BME280;27468;47.460;19.034;2023-02-16T11:41:54;101510.41;;;6.15;72.04
41800;BME280;27468;47.460;19.034;2023-02-16T11:44:47;101567.75;;;6.53;72.14
41800;BME280;27468;47.460;19.034;2023-02-16T11:47:22;101556.56;;;6.63;72.01
41800;BME280;27468;47.460;19.034;2023-02-16T11:50:05;101494.13;;;6.33;71.93
41800;BME280;27468;47.460;19.034;2023-02-16T11:52:31;101520.66;;;6.57;71.70
41800;BME280;27468;47.460;19.034;2023-02-16T11:54:59;101465.34;;;6.35;71.24
41800;BME280;27468;47.460;19.034;2023-02-16T11:57:33;101490.09;;;6.58;71.38
41800;BME280;27468;47.460;19.034;2023-02-16T12:00:05;101489.34;;;6.67;71.20
41800;BME280;27468;47.460;19.034;2023-02-16T12:08:55;101480.06;;;6.91;70.52
41800;BME280;27468;47.460;19.034;2023-02-16T12:11:36;101499.53;;;7.12;70.21
41800;BME280;27468;47.460;19.034;2023-02-16T12:14:29;101497.06;;;7.24;70.22
41800;BME280;27468;47.460;19.034;2023-02-16T12:17:11;101478.72;;;7.27;70.04
41800;BME280;27468;47.460;19.034;2023-02-16T12:19:58;101469.94;;;7.22;69.87
41800;BME280;27468;47.460;19.034;2023-02-16T12:22:31;101424.31;;;7.09;69.63
41800;BME280;27468;47.460;19.034;2023-02-16T12:30:52;101479.88;;;7.53;69.12
41800;BME280;27468;47.460;19.034;2023-02-16T12:36:48;101414.97;;;7.34;68.89
41800;BME280;27468;47.460;19.034;2023-02-16T12:39:29;101474.81;;;7.72;68.70
41800;BME280;27468;47.460;19.034;2023-02-16T12:42:18;101406.34;;;7.44;68.55
41800;BME280;27468;47.460;19.034;2023-02-16T12:44:50;101461.69;;;7.72;68.50
41800;BME280;27468;47.460;19.034;2023-02-16T12:47:26;101401.13;;;7.49;68.25
41800;BME280;27468;47.460;19.034;2023-02-16T12:50:21;101435.47;;;7.75;68.10
41800;BME280;27468;47.460;19.034;2023-02-16T12:52:51;101454.03;;;7.96;68.15
41800;BME280;27468;47.460;19.034;2023-02-16T12:55:33;101435.53;;;7.84;67.66
41800;BME280;27468;47.460;19.034;2023-02-16T12:58:09;101425.97;;;7.90;67.34
41800;BME280;27468;47.460;19.034;2023-02-16T13:06:03;101439.25;;;8.13;67.46
41800;BME280;27468;47.460;19.034;2023-02-16T13:08:44;101360.28;;;7.84;67.10
41800;BME280;27468;47.460;19.034;2023-02-16T13:11:20;101409.47;;;8.13;66.79
41800;BME280;27468;47.460;19.034;2023-02-16T13:13:47;101376.16;;;8.03;66.62
41800;BME280;27468;47.460;19.034;2023-02-16T13:16:43;101411.28;;;8.20;66.19
41800;BME280;27468;47.460;19.034;2023-02-16T13:19:11;101377.06;;;8.12;66.08
41800;BME280;27468;47.460;19.034;2023-02-16T13:24:37;101401.78;;;8.36;66.17
41800;BME280;27468;47.460;19.034;2023-02-16T13:27:28;101381.53;;;8.28;65.82
41800;BME280;27468;47.460;19.034;2023-02-16T13:41:09;101377.28;;;8.43;65.76
41800;BME280;27468;47.460;19.034;2023-02-16T13:46:49;101348.28;;;8.32;65.73
41800;BME280;27468;47.460;19.034;2023-02-16T13:49:37;101365.91;;;8.47;65.31
41800;BME280;27468;47.460;19.034;2023-02-16T13:52:28;101332.53;;;8.32;65.39
41800;BME280;27468;47.460;19.034;2023-02-16T13:54:56;101378.19;;;8.49;65.10
41800;BME280;27468;47.460;19.034;2023-02-16T14:02:56;101381.75;;;8.68;64.13
41800;BME280;27468;47.460;19.034;2023-02-16T14:05:25;101392.28;;;8.68;63.37
41800;BME280;27468;47.460;19.034;2023-02-16T14:08:15;101361.56;;;8.52;62.84
41800;BME280;27468;47.460;19.034;2023-02-16T14:11:05;101380.88;;;8.69;62.67
41800;BME280;27468;47.460;19.034;2023-02-16T14:16:09;101325.59;;;8.40;62.51
41800;BME280;27468;47.460;19.034;2023-02-16T14:21:45;101347.56;;;8.56;62.91
41800;BME280;27468;47.460;19.034;2023-02-16T14:24:31;101361.59;;;8.61;63.07
41800;BME280;27468;47.460;19.034;2023-02-16T14:27:05;101320.31;;;8.37;63.27
41800;BME280;27468;47.460;19.034;2023-02-16T14:29:54;101374.78;;;8.76;63.27
41800;BME280;27468;47.460;19.034;2023-02-16T14:32:28;101327.38;;;8.46;63.06
41800;BME280;27468;47.460;19.034;2023-02-16T14:37:35;101367.75;;;8.62;63.41
41800;BME280;27468;47.460;19.034;2023-02-16T14:40:16;101370.38;;;8.63;63.79